createdAt,value
2023-01-17T09:58:20.330Z,90.26
2023-01-17T10:01:03.708Z,91.75
2023-01-17T10:03:39.039Z,89.99
2023-01-17T10:06:37.759Z,93.03
2023-01-17T10:09:15.248Z,93.27
2023-01-17T10:11:55.634Z,91.74
2023-01-17T10:14:45.043Z,92.30
2023-01-17T10:17:39.201Z,90.32
2023-01-17T10:20:43.195Z,92.39
2023-01-17T10:23:31.894Z,91.65
2023-01-17T10:31:58.790Z,90.79
2023-01-17T10:34:40.679Z,89.75
2023-01-17T10:37:19.305Z,89.86
2023-01-17T10:39:51.376Z,88.61
2023-01-17T10:42:20.588Z,89.52
2023-01-17T10:45:20.980Z,88.50
2023-01-17T10:47:59.355Z,87.27
2023-01-17T10:50:34.276Z,88.30
2023-01-17T10:53:33.818Z,87.14
2023-01-17T10:56:03.660Z,89.20
2023-01-17T10:58:32.191Z,88.16
2023-01-17T11:03:58.689Z,86.39
2023-01-17T11:06:28.026Z,87.62
2023-01-17T11:11:51.170Z,87.38
2023-01-17T11:17:19.686Z,87.07
2023-01-17T11:19:51.484Z,86.91
2023-01-17T11:22:19.988Z,87.20
2023-01-17T11:24:53.799Z,85.91
2023-01-17T11:27:31.175Z,88.15
2023-01-17T11:30:20.995Z,84.00
2023-01-17T11:32:55.616Z,85.08
2023-01-17T11:35:28.304Z,85.79
2023-01-17T11:38:05.129Z,85.81
2023-01-17T11:40:48.156Z,84.85
2023-01-17T11:43:24.203Z,82.81
2023-01-17T11:46:06.883Z,82.07
2023-01-17T11:48:38.007Z,81.28
2023-01-17T11:51:31.822Z,81.45
2023-01-17T11:54:17.157Z,82.39
2023-01-17T11:56:46.710Z,81.00
2023-01-17T12:02:38.408Z,82.73
2023-01-17T12:05:15.527Z,83.10
2023-01-17T12:07:54.934Z,83.89
2023-01-17T12:10:46.226Z,82.19
2023-01-17T12:13:54.211Z,82.32
2023-01-17T12:16:45.744Z,80.79
2023-01-17T12:19:32.359Z,78.81
2023-01-17T12:22:36.920Z,80.16
2023-01-17T12:25:16.939Z,81.82
2023-01-17T12:28:10.217Z,81.54
2023-01-17T12:30:44.181Z,82.97
2023-01-17T12:33:36.679Z,84.79
2023-01-17T12:39:09.580Z,83.94
2023-01-17T12:42:09.449Z,84.54
2023-01-17T12:45:01.629Z,84.51
2023-01-17T12:47:38.050Z,84.93
2023-01-17T12:50:20.364Z,85.37
2023-01-17T12:53:02.686Z,85.18
2023-01-17T12:55:45.888Z,85.22
2023-01-17T12:58:20.337Z,85.59
2023-01-17T13:01:02.897Z,86.77
2023-01-17T13:04:06.306Z,87.15
2023-01-17T13:06:56.776Z,86.84
2023-01-17T13:23:27.663Z,87.19
2023-01-17T13:34:57.631Z,92.19
2023-01-17T13:37:46.576Z,92.51
2023-01-17T13:40:30.010Z,93.24
2023-01-17T13:43:00.980Z,93.53
2023-01-17T13:45:37.780Z,93.69
2023-01-17T13:48:18.826Z,94.03
2023-01-17T13:51:19.946Z,93.76
2023-01-17T13:53:48.295Z,94.97
2023-01-17T13:56:19.157Z,94.46
2023-01-17T13:58:58.399Z,94.03
2023-01-17T14:01:34.813Z,94.01
2023-01-17T14:04:08.144Z,94.02
2023-01-17T14:06:36.393Z,94.01
2023-01-17T14:09:22.358Z,94.88
2023-01-17T14:20:26.157Z,97.98
2023-01-17T14:41:54.685Z,99.06
2023-01-17T14:44:25.878Z,99.06
2023-01-17T14:46:53.964Z,100.00
2023-01-17T14:49:25.589Z,100.00
2023-01-17T14:52:05.040Z,100.00
2023-01-17T14:54:34.177Z,100.00
2023-01-17T14:57:35.945Z,100.00
2023-01-17T15:00:11.295Z,100.00
2023-01-17T15:02:44.201Z,100.00
2023-01-17T15:13:45.356Z,100.00
2023-01-17T15:16:20.184Z,100.00
2023-01-17T15:18:48.783Z,100.00
2023-01-17T15:21:23.176Z,100.00
2023-01-17T15:24:07.373Z,100.00
2023-01-17T15:26:39.247Z,100.00
2023-01-17T15:29:12.786Z,100.00
2023-01-17T15:31:41.569Z,100.00
2023-01-17T15:56:27.878Z,100.00
2023-01-17T15:59:43.217Z,100.00
2023-01-17T16:02:34.724Z,100.00
2023-01-17T16:05:25.033Z,100.00
2023-01-17T16:07:58.605Z,100.00
2023-01-17T16:10:29.505Z,100.00
2023-01-17T16:12:59.337Z,100.00
2023-01-17T16:15:29.391Z,100.00
2023-01-17T16:26:36.747Z,100.00
2023-01-17T16:29:07.690Z,100.00
2023-01-17T16:31:35.672Z,100.00
2023-01-17T16:34:03.863Z,100.00
2023-01-17T16:36:32.217Z,100.00
2023-01-17T16:39:00.419Z,100.00
2023-01-17T16:41:29.063Z,100.00
2023-01-17T16:44:00.343Z,100.00
2023-01-17T16:46:29.842Z,100.00
2023-01-17T16:57:05.899Z,100.00
2023-01-17T17:04:33.655Z,100.00
2023-01-17T17:07:02.425Z,100.00
2023-01-17T17:09:31.439Z,100.00
2023-01-17T17:11:59.745Z,100.00
2023-01-17T17:14:28.214Z,100.00
2023-01-17T17:16:56.973Z,100.00
2023-01-17T17:19:25.502Z,100.00
2023-01-17T17:21:53.894Z,100.00
2023-01-17T17:24:21.846Z,100.00
2023-01-17T17:26:51.051Z,100.00
2023-01-17T17:51:55.078Z,100.00
2023-01-17T17:54:24.815Z,100.00
2023-01-17T17:56:54.054Z,100.00
2023-01-17T17:59:22.429Z,100.00
2023-01-17T18:01:52.651Z,100.00
2023-01-17T18:04:22.229Z,100.00
2023-01-17T18:06:50.201Z,100.00
2023-01-17T18:09:18.491Z,100.00
2023-01-17T18:14:28.294Z,100.00
2023-01-17T18:37:08.409Z,100.00
2023-01-17T18:39:37.209Z,100.00
2023-01-17T18:42:05.871Z,100.00
2023-01-17T18:44:34.056Z,100.00
2023-01-17T18:47:04.836Z,100.00
2023-01-17T18:49:34.001Z,100.00
2023-01-17T18:52:03.067Z,100.00
2023-01-17T18:54:32.115Z,100.00
2023-01-17T18:57:00.991Z,100.00
2023-01-17T18:59:30.685Z,100.00
2023-01-17T19:01:58.888Z,100.00
2023-01-17T19:22:25.943Z,100.00
2023-01-17T19:24:55.087Z,100.00
2023-01-17T19:27:23.231Z,100.00
2023-01-17T19:29:51.390Z,100.00
2023-01-17T19:32:19.819Z,100.00
2023-01-17T19:34:49.474Z,100.00
2023-01-17T19:37:17.652Z,100.00
2023-01-17T19:39:46.291Z,100.00
2023-01-17T20:02:11.705Z,100.00
2023-01-17T20:04:40.577Z,100.00
2023-01-17T20:07:08.707Z,100.00
2023-01-17T20:09:36.873Z,100.00
2023-01-17T20:12:05.790Z,100.00
2023-01-17T20:14:33.877Z,100.00
2023-01-17T20:17:02.092Z,100.00
2023-01-17T20:19:30.504Z,100.00
2023-01-17T20:42:30.777Z,100.00
2023-01-17T20:44:59.684Z,100.00
2023-01-17T20:47:29.720Z,100.00
2023-01-17T20:49:57.883Z,100.00
2023-01-17T20:52:26.191Z,100.00
2023-01-17T20:54:54.250Z,100.00
2023-01-17T20:57:22.842Z,100.00
2023-01-17T21:20:29.343Z,100.00
2023-01-17T21:22:57.879Z,100.00
2023-01-17T21:25:25.790Z,100.00
2023-01-17T21:27:53.780Z,100.00
2023-01-17T21:30:22.067Z,100.00
2023-01-17T21:32:49.971Z,100.00
2023-01-17T21:35:17.987Z,100.00
2023-01-17T21:37:58.449Z,100.00
2023-01-17T21:58:57.508Z,100.00
2023-01-17T22:01:29.187Z,100.00
2023-01-17T22:04:00.092Z,100.00
2023-01-17T22:06:31.041Z,100.00
2023-01-17T22:08:59.435Z,100.00
2023-01-17T22:11:30.565Z,100.00
2023-01-17T22:13:59.334Z,100.00
2023-01-17T22:37:10.200Z,100.00
2023-01-17T22:39:39.327Z,100.00
2023-01-17T22:42:07.805Z,100.00
2023-01-17T22:44:35.631Z,100.00
2023-01-17T22:47:03.859Z,100.00
2023-01-17T22:49:32.015Z,100.00
2023-01-17T22:51:59.820Z,100.00
2023-01-17T22:54:28.114Z,100.00
2023-01-17T23:15:14.251Z,100.00
2023-01-17T23:18:01.302Z,100.00
2023-01-17T23:20:29.186Z,100.00
2023-01-17T23:22:57.536Z,100.00
2023-01-17T23:25:25.655Z,100.00
2023-01-17T23:28:11.714Z,100.00
2023-01-17T23:30:41.646Z,100.00
2023-01-17T23:51:10.615Z,100.00
2023-01-17T23:53:39.911Z,100.00
2023-01-17T23:56:19.092Z,100.00
2023-01-17T23:58:47.349Z,100.00
